createdAt,value
2019-03-30T00:00:50.824Z,102132.48
2019-03-30T00:06:15.618Z,102119.52
2019-03-30T00:11:40.612Z,102114.19
2019-03-30T00:17:05.411Z,102107.58
2019-03-30T00:22:29.833Z,102106.67
2019-03-30T00:27:54.062Z,102108.97
2019-03-30T00:33:18.235Z,102102.22
2019-03-30T00:38:43.127Z,102094.45
2019-03-30T00:44:07.705Z,102083.86
2019-03-30T00:49:32.829Z,102079.41
2019-03-30T00:54:57.728Z,102079.31
2019-03-30T01:00:23.366Z,102086.90
2019-03-30T01:05:47.549Z,102077.89
2019-03-30T01:11:12.522Z,102072.75
2019-03-30T01:16:37.541Z,102065.66
2019-03-30T01:22:02.133Z,102066.39
2019-03-30T01:27:26.601Z,102060.44
2019-03-30T01:32:51.532Z,102058.98
2019-03-30T01:38:17.847Z,102061.17
2019-03-30T01:43:41.965Z,102065.23
2019-03-30T01:49:07.254Z,102065.06
2019-03-30T01:54:31.905Z,102064.77
2019-03-30T01:59:57.237Z,102056.45
2019-03-30T02:05:22.093Z,102055.31
2019-03-30T02:10:47.507Z,102061.73
2019-03-30T02:16:13.036Z,102057.46
2019-03-30T02:21:38.059Z,102052.19
2019-03-30T02:27:02.931Z,102051.91
2019-03-30T02:32:28.088Z,102049.01
2019-03-30T02:37:52.839Z,102043.39
2019-03-30T02:43:17.480Z,102045.77
2019-03-30T02:48:41.654Z,102032.29
2019-03-30T02:54:06.609Z,102038.91
2019-03-30T02:59:31.497Z,102036.41
2019-03-30T03:04:56.969Z,102034.41
2019-03-30T03:10:22.273Z,102035.00
2019-03-30T03:15:47.049Z,102021.53
2019-03-30T03:21:12.043Z,102012.28
2019-03-30T03:26:37.270Z,102004.28
2019-03-30T03:32:02.340Z,102010.17
2019-03-30T03:37:43.416Z,102005.98
2019-03-30T03:42:53.721Z,102006.34
2019-03-30T03:48:18.331Z,102007.28
2019-03-30T03:53:43.560Z,102004.88
2019-03-30T03:59:08.173Z,101999.31
2019-03-30T04:04:36.105Z,101991.75
2019-03-30T04:10:03.525Z,101971.15
2019-03-30T04:15:28.780Z,101971.15
2019-03-30T04:20:53.741Z,101972.00
2019-03-30T04:26:18.666Z,101980.61
2019-03-30T04:31:43.855Z,101971.75
2019-03-30T04:37:08.249Z,101976.70
2019-03-30T04:42:33.765Z,101969.44
2019-03-30T04:47:59.230Z,101965.26
2019-03-30T04:53:24.179Z,101964.58
2019-03-30T04:58:48.618Z,101960.97
2019-03-30T05:04:13.167Z,101963.06
2019-03-30T05:09:38.766Z,101959.09
2019-03-30T05:15:04.091Z,101950.09
2019-03-30T05:20:28.891Z,101946.49
2019-03-30T05:25:53.658Z,101943.91
2019-03-30T05:31:19.006Z,101940.29
2019-03-30T05:36:43.406Z,101944.66
2019-03-30T05:42:07.530Z,101943.11
2019-03-30T05:47:31.766Z,101939.23
2019-03-30T05:52:56.412Z,101941.07
2019-03-30T05:58:20.676Z,101941.25
2019-03-30T06:03:45.320Z,101935.86
2019-03-30T06:09:09.544Z,101931.48
2019-03-30T06:14:33.772Z,101926.73
2019-03-30T06:19:58.130Z,101920.45
2019-03-30T06:25:22.678Z,101918.47
2019-03-30T06:30:46.919Z,101910.72
2019-03-30T06:36:12.374Z,101905.64
2019-03-30T06:41:37.053Z,101913.34
2019-03-30T06:47:01.546Z,101912.70
2019-03-30T06:52:25.824Z,101902.27
2019-03-30T06:57:51.064Z,101896.52
2019-03-30T07:03:16.672Z,101896.22
2019-03-30T07:08:44.481Z,101884.17
2019-03-30T07:14:11.758Z,101894.01
2019-03-30T07:19:39.607Z,101889.47
2019-03-30T07:25:04.930Z,101885.33
2019-03-30T07:30:31.573Z,101886.16
2019-03-30T07:35:57.997Z,101885.19
2019-03-30T07:41:22.340Z,101885.55
2019-03-30T07:46:46.441Z,101893.78
2019-03-30T07:52:11.617Z,101893.55
2019-03-30T07:57:36.945Z,101882.72
2019-03-30T08:03:02.423Z,101883.59
2019-03-30T08:08:26.980Z,101884.97
2019-03-30T08:13:51.167Z,101877.19
2019-03-30T08:19:16.135Z,101876.28
2019-03-30T08:24:41.494Z,101880.52
2019-03-30T08:30:06.654Z,101868.80
2019-03-30T08:35:31.010Z,101872.70
2019-03-30T08:40:56.289Z,101864.23
2019-03-30T08:46:21.704Z,101862.66
2019-03-30T08:51:46.534Z,101859.12
2019-03-30T08:57:11.840Z,101852.16
2019-03-30T09:02:36.962Z,101845.48
2019-03-30T09:08:02.144Z,101850.33
2019-03-30T09:13:27.392Z,101846.30
2019-03-30T09:18:52.433Z,101832.57
2019-03-30T09:24:18.363Z,101821.44
2019-03-30T09:29:42.783Z,101813.06
2019-03-30T09:35:08.510Z,101802.97
2019-03-30T09:40:33.018Z,101803.88
2019-03-30T09:45:58.218Z,101801.72
2019-03-30T09:51:23.151Z,101789.51
2019-03-30T09:56:47.227Z,101778.70
2019-03-30T10:02:11.918Z,101779.61
2019-03-30T10:07:36.068Z,101769.20
2019-03-30T10:13:00.506Z,101758.59
2019-03-30T10:18:25.496Z,101758.13
2019-03-30T10:23:49.422Z,101743.71
2019-03-30T10:29:14.989Z,101745.39
2019-03-30T10:34:39.941Z,101733.28
2019-03-30T10:40:06.152Z,101729.34
2019-03-30T10:45:31.212Z,101716.77
2019-03-30T10:50:55.419Z,101715.37
2019-03-30T10:56:19.778Z,101697.48
2019-03-30T11:01:43.956Z,101704.05
2019-03-30T11:07:08.418Z,101700.11
2019-03-30T11:12:32.788Z,101690.84
2019-03-30T11:17:57.763Z,101681.52
2019-03-30T11:23:22.094Z,101668.03
2019-03-30T11:28:46.704Z,101670.65
2019-03-30T11:34:11.377Z,101655.59
2019-03-30T11:39:35.573Z,101654.54
2019-03-30T11:44:59.898Z,101652.30
2019-03-30T11:50:25.001Z,101630.91
2019-03-30T11:55:49.415Z,101630.00
2019-03-30T12:01:14.426Z,101617.83
2019-03-30T12:06:40.566Z,101606.34
2019-03-30T12:12:05.495Z,101602.28
2019-03-30T12:17:30.744Z,101584.31
2019-03-30T12:22:55.905Z,101569.97
2019-03-30T12:28:21.881Z,101567.09
2019-03-30T12:33:47.129Z,101555.48
2019-03-30T12:39:12.455Z,101540.57
2019-03-30T12:44:37.553Z,101534.72
2019-03-30T12:50:02.092Z,101533.33
2019-03-30T12:55:27.091Z,101519.71
2019-03-30T13:00:51.370Z,101530.38
2019-03-30T13:06:16.361Z,101524.18
2019-03-30T13:11:40.785Z,101519.87
2019-03-30T13:17:06.065Z,101511.91
2019-03-30T13:22:30.946Z,101503.43
2019-03-30T13:27:56.298Z,101495.28
2019-03-30T13:33:21.222Z,101491.42
2019-03-30T13:38:45.417Z,101489.20
2019-03-30T13:44:11.381Z,101479.20
2019-03-30T13:49:36.640Z,101471.37
2019-03-30T13:55:01.293Z,101474.01
2019-03-30T14:00:26.586Z,101456.78
2019-03-30T14:05:50.683Z,101456.73
2019-03-30T14:11:15.987Z,101448.80
2019-03-30T14:16:40.372Z,101442.45
2019-03-30T14:22:04.917Z,101437.96
2019-03-30T14:27:29.113Z,101430.00
2019-03-30T14:32:54.229Z,101431.96
2019-03-30T14:38:19.060Z,101433.72
2019-03-30T14:43:44.149Z,101409.23
2019-03-30T14:49:09.376Z,101406.02
2019-03-30T14:54:34.592Z,101398.66
2019-03-30T14:59:59.359Z,101396.16
2019-03-30T15:05:23.819Z,101377.70
2019-03-30T15:10:48.171Z,101369.36
2019-03-30T15:16:13.117Z,101365.70
2019-03-30T15:21:38.345Z,101352.86
2019-03-30T15:27:03.579Z,101348.77
2019-03-30T15:32:28.306Z,101344.59
2019-03-30T15:37:53.431Z,101335.20
2019-03-30T15:43:17.730Z,101326.19
2019-03-30T15:48:42.199Z,101330.45
2019-03-30T15:54:07.039Z,101333.92
2019-03-30T15:59:31.318Z,101316.23
2019-03-30T16:04:56.598Z,101316.23
2019-03-30T16:10:21.058Z,101317.17
2019-03-30T16:15:46.152Z,101313.78
2019-03-30T16:21:11.460Z,101313.38
2019-03-30T16:26:42.199Z,101315.41
2019-03-30T16:32:01.651Z,101313.36
2019-03-30T16:37:26.648Z,101307.09
2019-03-30T16:42:50.926Z,101311.05
2019-03-30T16:48:16.197Z,101315.19
2019-03-30T16:53:41.310Z,101304.05
2019-03-30T16:59:05.633Z,101306.42
2019-03-30T17:04:30.343Z,101302.75
2019-03-30T17:09:55.220Z,101304.56
2019-03-30T17:15:20.647Z,101297.63
2019-03-30T17:20:45.549Z,101290.61
2019-03-30T17:26:10.856Z,101290.65
2019-03-30T17:31:36.005Z,101299.02
2019-03-30T17:37:00.974Z,101298.41
2019-03-30T17:42:27.029Z,101303.79
2019-03-30T17:47:51.926Z,101298.92
2019-03-30T17:53:16.927Z,101303.89
2019-03-30T17:58:42.158Z,101310.09
2019-03-30T18:04:07.283Z,101304.27
2019-03-30T18:09:31.912Z,101309.90
2019-03-30T18:14:56.004Z,101309.41
2019-03-30T18:20:20.908Z,101311.29
2019-03-30T18:25:45.866Z,101311.86
2019-03-30T18:31:10.594Z,101312.30
2019-03-30T18:36:36.938Z,101313.38
2019-03-30T18:42:01.391Z,101315.91
2019-03-30T18:47:26.042Z,101312.55
2019-03-30T18:52:51.170Z,101310.81
2019-03-30T18:58:16.025Z,101314.40
2019-03-30T19:03:41.510Z,101314.75
2019-03-30T19:09:07.801Z,101320.95
2019-03-30T19:14:32.279Z,101321.18
2019-03-30T19:19:56.442Z,101309.83
2019-03-30T19:25:20.825Z,101317.66
2019-03-30T19:30:45.074Z,101308.01
2019-03-30T19:36:10.189Z,101307.12
2019-03-30T19:41:34.156Z,101310.06
2019-03-30T19:46:59.164Z,101307.56
2019-03-30T19:52:38.987Z,101306.06
2019-03-30T19:57:51.061Z,101307.42
2019-03-30T20:03:16.431Z,101304.48
2019-03-30T20:08:40.829Z,101308.05
2019-03-30T20:14:05.134Z,101303.95
2019-03-30T20:19:30.162Z,101300.75
2019-03-30T20:24:54.955Z,101301.13
2019-03-30T20:30:20.471Z,101292.78
2019-03-30T20:35:45.723Z,101283.41
2019-03-30T20:41:10.351Z,101276.80
2019-03-30T20:46:34.973Z,101273.16
2019-03-30T20:51:59.323Z,101271.35
2019-03-30T20:57:23.761Z,101269.66
2019-03-30T21:02:48.164Z,101279.41
2019-03-30T21:08:12.630Z,101273.72
2019-03-30T21:13:37.954Z,101277.98
2019-03-30T21:19:02.443Z,101274.37
2019-03-30T21:24:26.705Z,101271.29
2019-03-30T21:29:54.976Z,101269.29
2019-03-30T21:35:17.729Z,101258.45
2019-03-30T21:40:43.155Z,101253.16
2019-03-30T21:46:07.558Z,101260.50
2019-03-30T21:51:32.357Z,101260.39
2019-03-30T21:56:57.254Z,101256.87
2019-03-30T22:02:21.740Z,101256.67
2019-03-30T22:07:47.177Z,101267.59
2019-03-30T22:13:12.039Z,101262.02
2019-03-30T22:18:37.141Z,101263.07
2019-03-30T22:24:01.549Z,101264.69
2019-03-30T22:29:26.532Z,101269.29
2019-03-30T22:34:51.023Z,101264.97
2019-03-30T22:40:16.493Z,101257.33
2019-03-30T22:45:41.702Z,101256.66
2019-03-30T22:51:06.007Z,101250.11
2019-03-30T22:56:31.656Z,101248.83
2019-03-30T23:01:58.210Z,101247.83
2019-03-30T23:07:23.092Z,101255.55
2019-03-30T23:12:48.262Z,101249.53
2019-03-30T23:18:12.441Z,101257.02
2019-03-30T23:23:36.544Z,101257.79
2019-03-30T23:29:01.912Z,101249.12
2019-03-30T23:34:26.522Z,101242.97
2019-03-30T23:39:51.683Z,101238.66
2019-03-30T23:45:15.790Z,101238.66
2019-03-30T23:50:41.119Z,101233.80
2019-03-30T23:56:20.466Z,101239.17
